Maersk Teal — S6HK — position and weather

sailwx.info

Track history (hours):
 
Tides and Currents Weather Stations Pressure Air Temp Water Temp Dewpoint Dewpoint Depression Visibility Wind Speed Wind Dir Waves Ship Positions

Maersk Teal

Last reported at 2018-Jan-19 00:07 UTC. Time now 2018-Jan-23 20:13 UTC.
Position N 09°37' W 079°57'.

Type: Cargo ship. MMSI: 564755000.

Date/timePositionNaut miles runAvg speedWind from/ knotsBaromVisibWave heightAir tempDewpointWater temp
2018-Jan-19 00:07N 09°37' W 079°57'217.4
2018-Jan-19 00:00N 09°35' W 079°57'816.8
2018-Jan-18 23:30N 09°27' W 079°54'5 9.9
2018-Jan-18 23:00N 09°22' W 079°54'1 1.2
2018-Jan-18 22:28N 09°22' W 079°53'0 0.0
2018-Jan-18 21:58N 09°22' W 079°53'0 0.0
2018-Jan-18 21:28N 09°22' W 079°53'0 0.0
2018-Jan-18 20:58N 09°22' W 079°53'0 0.0
2018-Jan-18 20:28N 09°22' W 079°53'0 0.0
2018-Jan-18 19:58N 09°22' W 079°53'0 0.0
2018-Jan-18 19:28N 09°22' W 079°53'0 0.0
2018-Jan-18 18:58N 09°22' W 079°53'0 0.0
2018-Jan-18 18:28N 09°22' W 079°53'0 0.0
2018-Jan-18 17:58N 09°22' W 079°53'0 0.0
2018-Jan-18 17:28N 09°22' W 079°53'0 0.0
2018-Jan-18 16:58N 09°22' W 079°53'0 0.0
2018-Jan-18 16:28N 09°22' W 079°53'0 0.0
2018-Jan-18 15:58N 09°22' W 079°53'0 0.0
2018-Jan-18 15:28N 09°22' W 079°53'0 0.0
2018-Jan-18 14:58N 09°22' W 079°53'0 0.0
2018-Jan-18 14:28N 09°22' W 079°53'0 0.0
2018-Jan-18 13:58N 09°22' W 079°53'0 0.0
2018-Jan-18 13:28N 09°22' W 079°53'0 0.0
2018-Jan-18 12:58N 09°22' W 079°53'0 0.0
2018-Jan-18 12:28N 09°22' W 079°53'0 0.0
2018-Jan-18 11:58N 09°22' W 079°53'0 0.0
2018-Jan-18 11:28N 09°22' W 079°53'0 0.0
2018-Jan-18 10:58N 09°22' W 079°53'0 0.5
2018-Jan-18 10:30N 09°22' W 079°53'2 4.3
2018-Jan-18 10:00N 09°24' W 079°54'3 6.9
2018-Jan-18 09:31N 09°27' W 079°53'4 7.4
2018-Jan-18 09:01N 09°31' W 079°52'611.9
2018-Jan-18 08:30N 09°37' W 079°50'612.3
2018-Jan-18 08:01N 09°42' W 079°48'  
2018-Jan-10 11:11N 26°11' W 079°30'317.0
2018-Jan-10 11:00N 26°10' W 079°33'816.2
2018-Jan-10 10:30N 26°08' W 079°42'815.7
2018-Jan-10 10:00N 26°07' W 079°51'815.7
2018-Jan-10 09:30N 26°07' W 079°59'611.1
2018-Jan-10 09:00N 26°06' W 080°05'2 3.2
2018-Jan-10 08:30N 26°05' W 080°07'1 1.3
2018-Jan-10 08:00N 26°04' W 080°07'0 0.0
2018-Jan-10 07:24N 26°04' W 080°07'0 0.0
2018-Jan-10 06:54N 26°04' W 080°07'0 0.0
2018-Jan-10 06:24N 26°04' W 080°07'0 0.0
2018-Jan-10 05:57N 26°04' W 080°07'0 0.0
2018-Jan-10 05:27N 26°04' W 080°07'0 0.0
2018-Jan-10 04:57N 26°04' W 080°07'0 0.0
2018-Jan-10 04:27N 26°04' W 080°07'0 0.0
2018-Jan-10 04:00N 26°04' W 080°07'0 0.0
2018-Jan-10 03:27N 26°04' W 080°07'0 0.0
2018-Jan-10 03:00N 26°04' W 080°07'0 0.0
2018-Jan-10 02:30N 26°04' W 080°07'0 0.0
2018-Jan-10 02:00N 26°04' W 080°07'0 0.0
2018-Jan-10 01:30N 26°04' W 080°07'0 0.0
2018-Jan-10 01:00N 26°04' W 080°07'0 0.0
2018-Jan-10 00:30N 26°04' W 080°07'0 0.0
2018-Jan-10 00:00N 26°04' W 080°07'0 0.0
2018-Jan-09 23:30N 26°04' W 080°07'0 0.0
2018-Jan-09 23:00N 26°04' W 080°07'0 0.0
2018-Jan-09 22:30N 26°04' W 080°07'0 0.0
2018-Jan-09 22:00N 26°04' W 080°07'0 0.0
2018-Jan-09 21:30N 26°04' W 080°07'0 0.0
2018-Jan-09 21:00N 26°04' W 080°07'0 0.0
2018-Jan-09 20:30N 26°04' W 080°07'0 0.0
2018-Jan-09 19:48N 26°04' W 080°07'0 0.0
2018-Jan-09 19:27N 26°04' W 080°07'0 0.0
2018-Jan-09 18:49N 26°04' W 080°07'0 0.0
2018-Jan-09 18:25N 26°04' W 080°07'0 0.0
2018-Jan-09 18:00N 26°04' W 080°07'0 0.0
2018-Jan-09 17:30N 26°04' W 080°07'0 0.0
2018-Jan-09 17:00N 26°04' W 080°07'0 0.0
2018-Jan-09 16:30N 26°04' W 080°07'0 0.0
2018-Jan-09 16:00N 26°04' W 080°07'0 0.0
2018-Jan-09 15:30N 26°04' W 080°07'0 0.0
2018-Jan-09 14:54N 26°04' W 080°07'0 0.0
2018-Jan-09 14:30N 26°04' W 080°07'0 0.0
2018-Jan-09 14:00N 26°04' W 080°07'0 0.0
2018-Jan-09 13:24N 26°04' W 080°07'0 0.0
2018-Jan-09 12:54N 26°04' W 080°07'0 0.0
2018-Jan-09 12:24N 26°04' W 080°07'0 0.0
2018-Jan-09 11:54N 26°04' W 080°07'0 0.0
2018-Jan-09 11:24N 26°04' W 080°07'0 0.0
2018-Jan-09 10:57N 26°04' W 080°07'0 0.0
2018-Jan-09 10:27N 26°04' W 080°07'0 0.0
2018-Jan-09 09:57N 26°04' W 080°07'0 0.1
2018-Jan-09 09:30N 26°04' W 080°07'1 2.9
2018-Jan-09 09:01N 26°06' W 080°07'4 8.7
2018-Jan-09 08:31N 26°05' W 080°02'3 6.0
2018-Jan-09 08:01N 26°05' W 079°59'3 5.9
2018-Jan-09 07:31N 26°06' W 079°55'5 9.5
2018-Jan-09 07:00N 26°06' W 079°50'510.0
2018-Jan-09 06:30N 26°07' W 079°45'510.0
2018-Jan-09 06:00N 26°08' W 079°39'5 9.4
2018-Jan-09 05:30N 26°10' W 079°34'5 9.1
2018-Jan-09 05:00N 26°12' W 079°30'5 9.1
2018-Jan-09 04:30N 26°14' W 079°26'4 6.6
2018-Jan-09 03:54N 26°17' W 079°22'  
Track history (hours):
 
Tides and Currents Weather Stations Pressure Air Temp Water Temp Dewpoint Dewpoint Depression Visibility Wind Speed Wind Dir Waves Ship Positions

Maersk Teal

Last reported at 2018-Jan-19 00:07 UTC. Time now 2018-Jan-23 20:13 UTC.
Position N 09°37' W 079°57'.

Type: Cargo ship. MMSI: 564755000.

Date/timePositionNaut miles runAvg speedWind from/ knotsBaromVisibWave heightAir tempDewpointWater temp
2018-Jan-19 00:07N 09°37' W 079°57'217.4
2018-Jan-19 00:00N 09°35' W 079°57'816.8
2018-Jan-18 23:30N 09°27' W 079°54'5 9.9
2018-Jan-18 23:00N 09°22' W 079°54'1 1.2
2018-Jan-18 22:28N 09°22' W 079°53'0 0.0
2018-Jan-18 21:58N 09°22' W 079°53'0 0.0
2018-Jan-18 21:28N 09°22' W 079°53'0 0.0
2018-Jan-18 20:58N 09°22' W 079°53'0 0.0
2018-Jan-18 20:28N 09°22' W 079°53'0 0.0
2018-Jan-18 19:58N 09°22' W 079°53'0 0.0
2018-Jan-18 19:28N 09°22' W 079°53'0 0.0
2018-Jan-18 18:58N 09°22' W 079°53'0 0.0
2018-Jan-18 18:28N 09°22' W 079°53'0 0.0
2018-Jan-18 17:58N 09°22' W 079°53'0 0.0
2018-Jan-18 17:28N 09°22' W 079°53'0 0.0
2018-Jan-18 16:58N 09°22' W 079°53'0 0.0
2018-Jan-18 16:28N 09°22' W 079°53'0 0.0
2018-Jan-18 15:58N 09°22' W 079°53'0 0.0
2018-Jan-18 15:28N 09°22' W 079°53'0 0.0
2018-Jan-18 14:58N 09°22' W 079°53'0 0.0
2018-Jan-18 14:28N 09°22' W 079°53'0 0.0
2018-Jan-18 13:58N 09°22' W 079°53'0 0.0
2018-Jan-18 13:28N 09°22' W 079°53'0 0.0
2018-Jan-18 12:58N 09°22' W 079°53'0 0.0
2018-Jan-18 12:28N 09°22' W 079°53'0 0.0
2018-Jan-18 11:58N 09°22' W 079°53'0 0.0
2018-Jan-18 11:28N 09°22' W 079°53'0 0.0
2018-Jan-18 10:58N 09°22' W 079°53'0 0.5
2018-Jan-18 10:30N 09°22' W 079°53'2 4.3
2018-Jan-18 10:00N 09°24' W 079°54'3 6.9
2018-Jan-18 09:31N 09°27' W 079°53'4 7.4
2018-Jan-18 09:01N 09°31' W 079°52'611.9
2018-Jan-18 08:30N 09°37' W 079°50'612.3
2018-Jan-18 08:01N 09°42' W 079°48'  
2018-Jan-10 11:11N 26°11' W 079°30'317.0
2018-Jan-10 11:00N 26°10' W 079°33'816.2
2018-Jan-10 10:30N 26°08' W 079°42'815.7
2018-Jan-10 10:00N 26°07' W 079°51'815.7
2018-Jan-10 09:30N 26°07' W 079°59'611.1
2018-Jan-10 09:00N 26°06' W 080°05'2 3.2
2018-Jan-10 08:30N 26°05' W 080°07'1 1.3
2018-Jan-10 08:00N 26°04' W 080°07'0 0.0
2018-Jan-10 07:24N 26°04' W 080°07'0 0.0
2018-Jan-10 06:54N 26°04' W 080°07'0 0.0
2018-Jan-10 06:24N 26°04' W 080°07'0 0.0
2018-Jan-10 05:57N 26°04' W 080°07'0 0.0
2018-Jan-10 05:27N 26°04' W 080°07'0 0.0
2018-Jan-10 04:57N 26°04' W 080°07'0 0.0
2018-Jan-10 04:27N 26°04' W 080°07'0 0.0
2018-Jan-10 04:00N 26°04' W 080°07'0 0.0
2018-Jan-10 03:27N 26°04' W 080°07'0 0.0
2018-Jan-10 03:00N 26°04' W 080°07'0 0.0
2018-Jan-10 02:30N 26°04' W 080°07'0 0.0
2018-Jan-10 02:00N 26°04' W 080°07'0 0.0
2018-Jan-10 01:30N 26°04' W 080°07'0 0.0
2018-Jan-10 01:00N 26°04' W 080°07'0 0.0
2018-Jan-10 00:30N 26°04' W 080°07'0 0.0
2018-Jan-10 00:00N 26°04' W 080°07'0 0.0
2018-Jan-09 23:30N 26°04' W 080°07'0 0.0
2018-Jan-09 23:00N 26°04' W 080°07'0 0.0
2018-Jan-09 22:30N 26°04' W 080°07'0 0.0
2018-Jan-09 22:00N 26°04' W 080°07'0 0.0
2018-Jan-09 21:30N 26°04' W 080°07'0 0.0
2018-Jan-09 21:00N 26°04' W 080°07'0 0.0
2018-Jan-09 20:30N 26°04' W 080°07'0 0.0
2018-Jan-09 19:48N 26°04' W 080°07'0 0.0
2018-Jan-09 19:27N 26°04' W 080°07'0 0.0
2018-Jan-09 18:49N 26°04' W 080°07'0 0.0
2018-Jan-09 18:25N 26°04' W 080°07'0 0.0
2018-Jan-09 18:00N 26°04' W 080°07'0 0.0
2018-Jan-09 17:30N 26°04' W 080°07'0 0.0
2018-Jan-09 17:00N 26°04' W 080°07'0 0.0
2018-Jan-09 16:30N 26°04' W 080°07'0 0.0
2018-Jan-09 16:00N 26°04' W 080°07'0 0.0
2018-Jan-09 15:30N 26°04' W 080°07'0 0.0
2018-Jan-09 14:54N 26°04' W 080°07'0 0.0
2018-Jan-09 14:30N 26°04' W 080°07'0 0.0
2018-Jan-09 14:00N 26°04' W 080°07'0 0.0
2018-Jan-09 13:24N 26°04' W 080°07'0 0.0
2018-Jan-09 12:54N 26°04' W 080°07'0 0.0
2018-Jan-09 12:24N 26°04' W 080°07'0 0.0
2018-Jan-09 11:54N 26°04' W 080°07'0 0.0
2018-Jan-09 11:24N 26°04' W 080°07'0 0.0
2018-Jan-09 10:57N 26°04' W 080°07'0 0.0
2018-Jan-09 10:27N 26°04' W 080°07'0 0.0
2018-Jan-09 09:57N 26°04' W 080°07'0 0.1
2018-Jan-09 09:30N 26°04' W 080°07'1 2.9
2018-Jan-09 09:01N 26°06' W 080°07'4 8.7
2018-Jan-09 08:31N 26°05' W 080°02'3 6.0
2018-Jan-09 08:01N 26°05' W 079°59'3 5.9
2018-Jan-09 07:31N 26°06' W 079°55'5 9.5
2018-Jan-09 07:00N 26°06' W 079°50'510.0
2018-Jan-09 06:30N 26°07' W 079°45'510.0
2018-Jan-09 06:00N 26°08' W 079°39'5 9.4
2018-Jan-09 05:30N 26°10' W 079°34'5 9.1
2018-Jan-09 05:00N 26°12' W 079°30'5 9.1
2018-Jan-09 04:30N 26°14' W 079°26'4 6.6
2018-Jan-09 03:54N 26°17' W 079°22'  

Dump ship's entire track history